TimeEDT,TemperatureF,Dew PointF,Humidity,Sea Level PressureIn,VisibilityMPH,Wind Direction,Wind SpeedMPH,Gust SpeedMPH,PrecipitationIn,Events,Conditions,WindDirDegrees,DateUTC
12:55 AM,43.3,27.5,54,29.85,10.0,NNW,25.3,38.0,N/A,,Clear,330,2012-10-30 04:55:00
1:55 AM,43.0,27.7,55,29.81,10.0,NNW,23.0,34.5,N/A,,Clear,330,2012-10-30 05:55:00
2:55 AM,42.3,28.2,58,29.77,10.0,NNW,28.8,35.7,N/A,,Partly Cloudy,330,2012-10-30 06:55:00
3:55 AM,42.4,29.7,61,29.75,10.0,NNW,23.0,29.9,N/A,,Overcast,330,2012-10-30 07:55:00
4:55 AM,43.3,30.0,59,29.72,10.0,NNW,23.0,40.3,N/A,,Overcast,330,2012-10-30 08:55:00
5:55 AM,43.9,30.4,59,29.70,10.0,NW,26.5,40.3,N/A,,Overcast,320,2012-10-30 09:55:00
6:55 AM,43.9,31.5,62,29.68,10.0,NNW,26.5,43.7,0.01,,Mostly Cloudy,330,2012-10-30 10:55:00
7:06 AM,44.6,32.0,61,29.68,10.0,NNW,27.6,35.7,N/A,,Light Drizzle,330,2012-10-30 11:06:00
7:40 AM,42.8,35.6,76,29.67,10.0,NNW,25.3,40.3,N/A,Rain,Light Rain,330,2012-10-30 11:40:00
7:55 AM,41.9,35.1,77,29.67,10.0,NNW,25.3,39.1,0.00,Rain,Light Rain,330,2012-10-30 11:55:00
8:55 AM,41.4,36.3,82,29.66,10.0,NNW,18.4,40.3,0.00,Rain,Light Rain,330,2012-10-30 12:55:00
9:50 AM,41.0,37.4,87,29.65,10.0,NW,21.9,33.4,N/A,Rain,Light Rain,320,2012-10-30 13:50:00
9:55 AM,41.9,37.6,85,29.65,10.0,NNW,24.2,33.4,0.01,Rain,Light Rain,330,2012-10-30 13:55:00
10:30 AM,42.8,37.4,81,29.62,10.0,NNW,24.2,35.7,N/A,Rain,Light Rain,330,2012-10-30 14:30:00
10:55 AM,42.1,39.0,89,29.65,8.0,NNW,20.7,29.9,0.01,Rain,Light Rain,330,2012-10-30 14:55:00
11:55 AM,42.3,38.7,87,29.65,10.0,NNW,24.2,31.1,0.01,Rain,Light Rain,330,2012-10-30 15:55:00
12:35 PM,42.8,39.2,87,29.65,10.0,NW,17.3,24.2,N/A,Rain,Light Rain,320,2012-10-30 16:35:00
12:55 PM,42.3,38.7,87,29.64,10.0,NNW,26.5,32.2,0.00,Rain,Light Rain,330,2012-10-30 16:55:00
1:55 PM,42.4,39.2,88,29.64,10.0,NNW,24.2,32.2,0.03,Rain,Rain,330,2012-10-30 17:55:00
2:55 PM,41.9,38.5,88,29.63,10.0,NNW,20.7,31.1,0.03,Rain,Light Rain,330,2012-10-30 18:55:00
3:55 PM,41.5,37.9,87,29.64,10.0,NNW,17.3,29.9,0.04,Rain,Light Rain,330,2012-10-30 19:55:00
4:10 PM,41.0,37.4,87,29.65,10.0,NW,21.9,32.2,N/A,Rain,Light Rain,320,2012-10-30 20:10:00
4:55 PM,41.4,37.9,88,29.66,10.0,NNW,21.9,26.5,0.03,Rain,Light Rain,330,2012-10-30 20:55:00
5:55 PM,40.8,37.6,88,29.67,10.0,NW,18.4,26.5,0.01,Rain,Light Rain,320,2012-10-30 21:55:00
6:55 PM,40.6,38.3,91,29.69,10.0,NW,19.6,24.2,0.01,Rain,Light Rain,320,2012-10-30 22:55:00
7:55 PM,40.5,38.5,93,29.71,10.0,NW,17.3,26.5,0.01,Rain,Light Rain,320,2012-10-30 23:55:00
8:55 PM,40.1,38.5,94,29.71,10.0,NW,13.8,20.7,0.03,Rain,Light Rain,320,2012-10-31 00:55:00
9:55 PM,40.1,38.1,93,29.71,10.0,NNW,13.8,-,0.02,Rain,Light Rain,330,2012-10-31 01:55:00
10:42 PM,39.2,37.4,93,29.72,10.0,NNW,15.0,20.7,N/A,Rain,Light Rain,330,2012-10-31 02:42:00
10:55 PM,39.6,37.8,93,29.71,10.0,NNW,16.1,23.0,0.01,Rain,Light Rain,330,2012-10-31 02:55:00
11:24 PM,39.2,37.4,93,29.70,10.0,NNW,18.4,28.8,N/A,Rain,Light Rain,330,2012-10-31 03:24:00
11:26 PM,39.2,37.4,93,29.70,10.0,NNW,19.6,28.8,N/A,Rain,Light Rain,330,2012-10-31 03:26:00
11:55 PM,39.4,37.2,92,29.71,10.0,NW,12.7,-,0.01,Rain,Light Rain,320,2012-10-31 03:55:00